createdAt,value
2022-11-24T00:03:23.479Z,22
2022-11-24T00:08:53.900Z,22
2022-11-24T00:14:24.395Z,22
2022-11-24T00:19:55.013Z,22
2022-11-24T00:25:25.468Z,22
2022-11-24T00:30:56.019Z,21.9
2022-11-24T00:36:26.571Z,21.8
2022-11-24T00:41:56.995Z,21.8
2022-11-24T00:47:27.491Z,21.7
2022-11-24T00:52:58.104Z,21.7
2022-11-24T00:58:28.553Z,21.8
2022-11-24T01:03:59.047Z,21.8
2022-11-24T01:09:29.672Z,21.9
2022-11-24T01:15:00.129Z,21.9
2022-11-24T01:20:30.690Z,21.9
2022-11-24T01:26:01.190Z,21.9
2022-11-24T01:31:31.641Z,21.9
2022-11-24T01:37:02.327Z,21.9
2022-11-24T01:42:32.843Z,21.9
2022-11-24T01:48:03.281Z,21.9
2022-11-24T01:53:33.874Z,21.9
2022-11-24T01:59:04.381Z,21.8
2022-11-24T02:04:35.103Z,21.8
2022-11-24T02:10:05.416Z,21.8
2022-11-24T02:15:35.996Z,21.7
2022-11-24T02:21:05.372Z,21.6
2022-11-24T02:26:35.876Z,21.6
2022-11-24T02:32:06.384Z,21.5
2022-11-24T02:37:36.928Z,21.5
2022-11-24T02:43:07.399Z,21.5
2022-11-24T02:48:37.916Z,21.4
2022-11-24T02:54:08.506Z,21.5
2022-11-24T02:59:38.968Z,21.4
2022-11-24T03:05:09.460Z,21.4
2022-11-24T03:10:38.919Z,21.4
2022-11-24T03:16:09.539Z,21.4
2022-11-24T03:21:38.921Z,21.4
2022-11-24T03:27:09.406Z,21.4
2022-11-24T03:32:39.867Z,21.4
2022-11-24T03:38:09.377Z,21.4
2022-11-24T03:43:43.830Z,21.4
2022-11-24T03:49:10.424Z,21.4
2022-11-24T03:54:40.948Z,21.4
2022-11-24T04:00:11.393Z,21.3
2022-11-24T04:05:41.987Z,21.4
2022-11-24T04:11:12.494Z,21.3
2022-11-24T04:16:43.063Z,21.3
2022-11-24T04:22:13.541Z,21.3
2022-11-24T04:27:44.115Z,21.3
2022-11-24T04:33:13.573Z,21.3
2022-11-24T04:39:19.623Z,21.3
2022-11-24T04:44:14.708Z,21.3
2022-11-24T04:49:45.164Z,21.3
2022-11-24T04:55:15.657Z,21.3
2022-11-24T05:00:46.251Z,21.3
2022-11-24T05:06:16.692Z,21.3
2022-11-24T05:11:47.286Z,21.3
2022-11-24T05:17:17.922Z,21.3
2022-11-24T05:22:48.358Z,21.3
2022-11-24T05:28:18.802Z,21.3
2022-11-24T05:33:49.432Z,21.3
2022-11-24T05:39:19.877Z,21.3
2022-11-24T05:44:50.355Z,21.3
2022-11-24T05:50:20.983Z,21.3
2022-11-24T05:55:51.429Z,21.3
2022-11-24T06:01:21.936Z,21.3
2022-11-24T06:06:51.421Z,21.3
2022-11-24T06:12:21.904Z,21.3
2022-11-24T06:17:52.484Z,21.3
2022-11-24T06:23:23.024Z,21.3
2022-11-24T06:28:53.473Z,21.3
2022-11-24T06:34:24.078Z,21.3
2022-11-24T06:39:54.559Z,21.2
2022-11-24T06:45:25.139Z,21.2
2022-11-24T06:50:54.478Z,21.2
2022-11-24T06:56:25.000Z,21.2
2022-11-24T07:01:54.451Z,21.2
2022-11-24T07:07:24.999Z,21.2
2022-11-24T07:12:55.418Z,21.2
2022-11-24T07:18:25.992Z,21.2
2022-11-24T07:23:56.541Z,21.2
2022-11-24T07:29:27.040Z,21.2
2022-11-24T07:34:57.614Z,21.2
2022-11-24T07:40:28.163Z,21.3
2022-11-24T07:45:57.718Z,21.2
2022-11-24T07:51:28.081Z,21.2
2022-11-24T07:56:57.569Z,21.2
2022-11-24T08:02:28.054Z,21.3
2022-11-24T08:07:58.596Z,21.2
2022-11-24T08:13:28.018Z,21.3
2022-11-24T08:18:58.536Z,21.3
2022-11-24T08:24:28.972Z,21.2
2022-11-24T08:29:59.554Z,21.2
2022-11-24T08:35:30.096Z,21.3
2022-11-24T08:40:59.528Z,21.2
2022-11-24T08:46:30.141Z,21.2
2022-11-24T08:52:00.497Z,21.2
2022-11-24T08:57:31.081Z,21.2
2022-11-24T09:03:01.539Z,21.2
2022-11-24T09:08:32.173Z,21.2
2022-11-24T09:14:02.602Z,21.2
2022-11-24T09:19:33.533Z,21.3
2022-11-24T09:25:03.765Z,21.3
2022-11-24T09:30:34.306Z,21.3
2022-11-24T09:36:04.688Z,21.3
2022-11-24T09:41:35.336Z,21.2
2022-11-24T09:47:05.952Z,21.3
2022-11-24T09:52:36.485Z,21.3
2022-11-24T09:58:06.967Z,21.3
2022-11-24T10:03:37.424Z,21.3
2022-11-24T10:09:06.917Z,21.3
2022-11-24T10:14:37.431Z,21.3
2022-11-24T10:20:07.860Z,21.3
2022-11-24T10:25:37.382Z,21.3
2022-11-24T10:31:07.940Z,21.3
2022-11-24T10:36:38.408Z,21.3
2022-11-24T10:42:08.910Z,21.4
2022-11-24T10:47:39.407Z,21.4
2022-11-24T10:53:09.979Z,21.4
2022-11-24T10:58:40.452Z,21.4
2022-11-24T11:04:10.976Z,21.4
2022-11-24T11:09:41.516Z,21.4
2022-11-24T11:15:12.014Z,21.4
2022-11-24T11:20:42.632Z,21.4
2022-11-24T11:26:12.114Z,21.4
2022-11-24T11:31:43.057Z,21.4
2022-11-24T11:37:13.064Z,21.4
2022-11-24T11:43:01.971Z,21.4
2022-11-24T11:48:14.108Z,21.4
2022-11-24T11:53:44.811Z,21.4
2022-11-24T11:59:15.309Z,21.5
2022-11-24T12:04:45.784Z,21.5
2022-11-24T12:10:15.310Z,21.5
2022-11-24T12:15:45.819Z,21.5
2022-11-24T12:21:17.960Z,21.5
2022-11-24T12:26:46.873Z,21.5
2022-11-24T12:32:17.862Z,21.5
2022-11-24T12:37:47.873Z,21.5
2022-11-24T12:43:17.416Z,21.5
2022-11-24T12:48:47.852Z,21.5
2022-11-24T12:54:18.468Z,21.5
2022-11-24T12:59:48.982Z,21.4
2022-11-24T13:05:19.419Z,21.5
2022-11-24T13:10:58.017Z,21.4
2022-11-24T13:16:35.744Z,21.5
2022-11-24T13:21:51.119Z,21.5
2022-11-24T13:27:21.667Z,21.5
2022-11-24T13:32:52.177Z,21.5
2022-11-24T13:38:22.739Z,21.5
2022-11-24T13:43:53.213Z,21.5
2022-11-24T13:49:23.746Z,21.5
2022-11-24T13:54:54.272Z,21.5
2022-11-24T14:00:24.751Z,21.5
2022-11-24T14:05:55.274Z,21.5
2022-11-24T14:11:25.827Z,21.5
2022-11-24T14:16:56.394Z,21.5
2022-11-24T14:22:27.130Z,21.4
2022-11-24T14:27:57.539Z,21.4
2022-11-24T14:33:27.960Z,21.4
2022-11-24T14:38:58.561Z,21.4
2022-11-24T14:44:28.982Z,21.4
2022-11-24T14:49:59.572Z,21.4
2022-11-24T14:55:28.985Z,21.4
2022-11-24T15:00:59.539Z,21.3
2022-11-24T15:06:30.057Z,21.3
2022-11-24T15:12:00.555Z,21.3
2022-11-24T15:17:31.013Z,21.3
2022-11-24T15:23:00.500Z,21.3
2022-11-24T15:28:30.974Z,21.3
2022-11-24T15:34:01.460Z,21.2
2022-11-24T15:39:30.925Z,21.2
2022-11-24T15:45:01.426Z,21.2
2022-11-24T15:50:31.897Z,21.2
2022-11-24T15:56:01.367Z,21.2
2022-11-24T16:01:32.128Z,21.2
2022-11-24T16:07:01.338Z,21.2
2022-11-24T16:12:31.820Z,21.2
2022-11-24T16:18:02.339Z,21.2
2022-11-24T16:23:32.882Z,21.2
2022-11-24T16:29:03.447Z,21.2
2022-11-24T16:34:34.380Z,21.2
2022-11-24T16:40:03.422Z,21.2
2022-11-24T16:45:34.035Z,21.2
2022-11-24T16:51:04.549Z,21.2
2022-11-24T16:56:35.002Z,21.2
2022-11-24T17:02:05.563Z,21.2
2022-11-24T17:07:36.181Z,21.2
2022-11-24T17:13:06.643Z,21.1
2022-11-24T17:18:37.091Z,21.1
2022-11-24T17:24:07.717Z,21.1
2022-11-24T17:29:38.177Z,21.2
2022-11-24T17:35:08.660Z,21.2
2022-11-24T17:40:39.267Z,21.2
2022-11-24T17:46:09.789Z,21.2
2022-11-24T17:51:40.299Z,21.2
2022-11-24T17:57:10.820Z,21.2
2022-11-24T18:02:41.358Z,21.2
2022-11-24T18:08:12.053Z,21.2
2022-11-24T18:13:58.428Z,21.2
2022-11-24T18:19:12.957Z,21.2
2022-11-24T18:24:43.567Z,21.2
2022-11-24T18:30:14.058Z,21.2
2022-11-24T18:35:43.521Z,21.2
2022-11-24T18:41:14.050Z,21.2
2022-11-24T18:46:44.593Z,21.1
2022-11-24T18:52:15.180Z,21.1
2022-11-24T18:57:45.656Z,21.1
2022-11-24T19:03:15.170Z,21.2
2022-11-24T19:08:45.648Z,21.2
2022-11-24T19:14:16.133Z,21.2
2022-11-24T19:19:46.732Z,21.2
2022-11-24T19:25:17.195Z,21.2
2022-11-24T19:30:47.785Z,21.2
2022-11-24T19:36:17.279Z,21.2
2022-11-24T19:41:47.732Z,21.2
2022-11-24T19:47:18.220Z,21.3
2022-11-24T19:52:47.747Z,21.2
2022-11-24T19:58:18.191Z,21.2
2022-11-24T20:03:48.685Z,21.2
2022-11-24T20:09:18.224Z,21.2
2022-11-24T20:14:48.788Z,21.3
2022-11-24T20:20:19.375Z,21.5
2022-11-24T20:25:49.874Z,21.6
2022-11-24T20:31:20.375Z,21.7
2022-11-24T20:36:49.834Z,21.7
2022-11-24T20:42:20.323Z,21.7
2022-11-24T20:47:50.772Z,21.8
2022-11-24T20:53:21.362Z,21.8
2022-11-24T20:58:51.968Z,21.8
2022-11-24T21:04:22.404Z,21.8
2022-11-24T21:09:53.025Z,21.8
2022-11-24T21:15:23.527Z,21.8
2022-11-24T21:20:53.968Z,21.9
2022-11-24T21:26:24.576Z,21.8
2022-11-24T21:31:55.152Z,21.8
2022-11-24T21:37:24.545Z,21.9
2022-11-24T21:42:55.029Z,21.8
2022-11-24T21:48:25.538Z,21.9
2022-11-24T21:53:56.136Z,21.9
2022-11-24T21:59:26.567Z,21.9
2022-11-24T22:04:57.071Z,21.7
2022-11-24T22:10:26.659Z,21.7
2022-11-24T22:15:57.159Z,21.7
2022-11-24T22:21:26.651Z,21.7
2022-11-24T22:26:57.093Z,21.7
2022-11-24T22:32:26.585Z,21.6
2022-11-24T22:37:57.110Z,21.7
2022-11-24T22:43:27.565Z,21.7
2022-11-24T22:48:57.041Z,21.7
2022-11-24T22:54:27.544Z,21.6
2022-11-24T22:59:57.004Z,21.7
2022-11-24T23:05:27.475Z,21.7
2022-11-24T23:10:58.000Z,21.7
2022-11-24T23:16:28.570Z,21.7
2022-11-24T23:21:59.034Z,21.7
2022-11-24T23:27:29.519Z,21.7
2022-11-24T23:33:00.114Z,21.7
2022-11-24T23:38:30.573Z,21.7
2022-11-24T23:44:01.055Z,21.7
2022-11-24T23:49:30.522Z,21.7
2022-11-24T23:55:01.029Z,21.7
